createdAt,value
2017-10-15T00:00:03.892Z,29.30
2017-10-15T00:01:02.968Z,29.70
2017-10-15T00:02:03.417Z,28.30
2017-10-15T00:03:03.913Z,29.20
2017-10-15T00:04:04.045Z,27.70
2017-10-15T00:05:03.610Z,27.60
2017-10-15T00:06:03.339Z,26.50
2017-10-15T00:07:03.484Z,24.40
2017-10-15T00:08:04.009Z,23.50
2017-10-15T00:09:02.986Z,23.40
2017-10-15T00:10:03.284Z,22.10
2017-10-15T00:11:03.855Z,22.60
2017-10-15T00:12:03.356Z,23.60
2017-10-15T00:13:04.071Z,23.70
2017-10-15T00:14:03.427Z,22.80
2017-10-15T00:15:03.881Z,23.90
2017-10-15T00:16:03.724Z,23.20
2017-10-15T00:17:02.900Z,22.20
2017-10-15T00:18:03.146Z,21.10
2017-10-15T00:19:03.419Z,21.80
2017-10-15T00:20:03.195Z,21.70
2017-10-15T00:21:04.125Z,22.50
2017-10-15T00:22:03.536Z,21.10
2017-10-15T00:23:03.320Z,24.60
2017-10-15T00:24:03.864Z,26.00
2017-10-15T00:25:02.790Z,24.90
2017-10-15T00:26:03.832Z,24.70
2017-10-15T00:27:02.826Z,26.50
2017-10-15T00:28:02.546Z,27.10
2017-10-15T00:29:03.990Z,28.00
2017-10-15T00:30:03.546Z,27.40
2017-10-15T00:31:02.685Z,27.40
2017-10-15T00:32:03.937Z,26.80
2017-10-15T00:33:02.866Z,28.30
2017-10-15T00:34:03.039Z,29.30
2017-10-15T00:35:03.412Z,29.10
2017-10-15T00:36:03.880Z,29.70
2017-10-15T00:37:02.974Z,30.50
2017-10-15T00:38:03.660Z,37.90
2017-10-15T00:39:03.658Z,39.90
2017-10-15T00:40:03.191Z,38.90
2017-10-15T00:41:03.372Z,40.70
2017-10-15T00:42:03.718Z,40.50
2017-10-15T00:43:03.299Z,40.00
2017-10-15T00:44:03.352Z,39.90
2017-10-15T00:45:03.333Z,37.20
2017-10-15T00:46:03.471Z,38.20
2017-10-15T00:47:03.475Z,37.70
2017-10-15T00:48:02.867Z,37.40
2017-10-15T00:49:03.224Z,38.20
2017-10-15T00:50:03.427Z,38.80
2017-10-15T00:51:03.430Z,38.60
2017-10-15T00:52:03.333Z,40.00
2017-10-15T00:53:03.208Z,38.60
2017-10-15T00:54:03.918Z,39.20
2017-10-15T00:55:02.581Z,38.10
2017-10-15T00:56:02.600Z,36.50
2017-10-15T00:57:03.480Z,35.90
2017-10-15T00:58:03.527Z,36.30
2017-10-15T00:59:02.754Z,35.40
2017-10-15T01:00:03.555Z,36.60
2017-10-15T01:01:02.768Z,37.30
2017-10-15T01:02:02.718Z,41.90
2017-10-15T01:03:02.786Z,47.20
2017-10-15T01:04:03.218Z,46.40
2017-10-15T01:05:03.769Z,44.50
2017-10-15T01:06:02.755Z,44.80
2017-10-15T01:07:03.128Z,42.90
2017-10-15T01:08:03.330Z,44.10
2017-10-15T01:09:03.120Z,48.10
2017-10-15T01:10:04.141Z,47.20
2017-10-15T01:11:03.137Z,45.80
2017-10-15T01:12:02.955Z,47.60
2017-10-15T01:13:02.819Z,46.20
2017-10-15T01:14:02.577Z,46.30
2017-10-15T01:15:03.611Z,48.00
2017-10-15T01:16:03.028Z,47.00
2017-10-15T01:17:02.883Z,47.20
2017-10-15T01:18:03.199Z,48.10
2017-10-15T01:19:03.473Z,45.60
2017-10-15T01:20:03.761Z,44.00
2017-10-15T01:21:02.699Z,47.20
2017-10-15T01:22:03.047Z,45.30
2017-10-15T01:23:03.636Z,45.20
2017-10-15T01:24:02.830Z,47.60
2017-10-15T01:25:02.940Z,47.90
2017-10-15T01:26:03.340Z,46.70
2017-10-15T01:27:03.658Z,44.80
2017-10-15T01:28:02.951Z,48.30
2017-10-15T01:29:03.749Z,47.50
2017-10-15T01:30:02.642Z,45.90
2017-10-15T01:31:02.570Z,46.10
2017-10-15T01:32:02.838Z,45.50
2017-10-15T01:33:03.208Z,48.30
2017-10-15T01:34:03.327Z,48.60
2017-10-15T01:35:03.719Z,48.80
2017-10-15T01:36:03.008Z,52.90
2017-10-15T01:37:04.109Z,48.10
2017-10-15T01:38:03.346Z,50.80
2017-10-15T01:39:03.737Z,52.00
2017-10-15T01:40:02.830Z,51.00
2017-10-15T01:41:03.313Z,51.60
2017-10-15T01:42:05.110Z,46.50
2017-10-15T01:43:03.740Z,46.20
2017-10-15T01:44:02.919Z,47.40
2017-10-15T01:45:02.954Z,45.50
2017-10-15T01:46:03.093Z,46.50
2017-10-15T01:47:03.413Z,43.30
2017-10-15T01:48:03.340Z,45.50
2017-10-15T01:49:03.610Z,45.30
2017-10-15T01:50:02.752Z,46.40
2017-10-15T01:51:02.668Z,44.40
2017-10-15T01:52:02.502Z,45.40
2017-10-15T01:53:03.139Z,56.10
2017-10-15T01:54:03.873Z,55.70
2017-10-15T01:55:03.071Z,61.70
2017-10-15T01:56:03.020Z,61.40
2017-10-15T01:57:03.427Z,58.70
2017-10-15T01:58:03.304Z,60.90
2017-10-15T01:59:04.069Z,57.40
2017-10-15T02:00:03.391Z,56.30
2017-10-15T02:01:02.554Z,57.30
2017-10-15T02:02:03.111Z,58.00
2017-10-15T02:03:03.521Z,59.60
2017-10-15T02:04:04.277Z,62.80
2017-10-15T02:05:03.601Z,62.20
2017-10-15T02:06:02.826Z,62.20
2017-10-15T02:07:02.877Z,61.50
2017-10-15T02:08:02.860Z,69.30
2017-10-15T02:09:02.779Z,65.80
2017-10-15T02:10:03.456Z,64.90
2017-10-15T02:11:03.879Z,61.80
2017-10-15T02:12:03.423Z,62.90
2017-10-15T02:13:03.410Z,62.50
2017-10-15T02:14:03.718Z,61.40
2017-10-15T02:15:02.913Z,60.90
2017-10-15T02:16:03.611Z,56.50
2017-10-15T02:17:02.712Z,59.50
2017-10-15T02:18:03.135Z,58.40
2017-10-15T02:19:03.581Z,61.50
2017-10-15T02:20:03.557Z,63.90
2017-10-15T02:21:02.767Z,65.30
2017-10-15T02:22:03.190Z,65.10
2017-10-15T02:23:03.540Z,63.20
2017-10-15T02:24:03.706Z,60.30
2017-10-15T02:25:02.929Z,66.20
2017-10-15T02:26:03.423Z,73.70
2017-10-15T02:27:05.021Z,61.90
2017-10-15T02:28:03.505Z,64.60
2017-10-15T02:29:03.058Z,67.90
2017-10-15T02:30:03.232Z,79.00
2017-10-15T02:31:03.242Z,78.70
2017-10-15T02:32:03.466Z,80.00
2017-10-15T02:33:03.166Z,80.20
2017-10-15T02:34:03.307Z,83.60
2017-10-15T02:35:03.817Z,78.80
2017-10-15T02:36:03.211Z,67.00
2017-10-15T02:37:02.915Z,66.70
2017-10-15T02:38:03.733Z,69.00
2017-10-15T02:39:02.653Z,67.10
2017-10-15T02:40:02.925Z,67.40
2017-10-15T02:41:03.036Z,72.10
2017-10-15T02:42:03.329Z,73.80
2017-10-15T02:43:04.102Z,78.30
2017-10-15T02:44:04.521Z,79.20
2017-10-15T02:45:03.390Z,74.50
2017-10-15T02:46:03.300Z,74.80
2017-10-15T02:47:02.546Z,79.20
2017-10-15T02:48:03.814Z,77.50
2017-10-15T02:49:03.677Z,88.80
2017-10-15T02:50:02.856Z,82.80
2017-10-15T02:51:03.067Z,80.20
2017-10-15T02:52:02.978Z,83.90
2017-10-15T02:53:02.902Z,88.80
2017-10-15T02:54:03.576Z,79.00
2017-10-15T02:55:03.086Z,81.90
2017-10-15T02:56:03.270Z,84.60
2017-10-15T02:57:03.666Z,86.20
2017-10-15T02:58:03.248Z,85.60
2017-10-15T02:59:03.675Z,88.10
2017-10-15T03:00:02.893Z,89.00
2017-10-15T03:01:03.132Z,82.90
2017-10-15T03:02:03.262Z,86.10
2017-10-15T03:03:03.704Z,87.70
2017-10-15T03:04:02.604Z,85.50
2017-10-15T03:05:03.349Z,85.90
2017-10-15T03:06:03.571Z,84.90
2017-10-15T03:07:03.060Z,87.70
2017-10-15T03:08:03.105Z,90.10
2017-10-15T03:09:03.017Z,86.10
2017-10-15T03:10:03.209Z,82.60
2017-10-15T03:11:03.216Z,81.40
2017-10-15T03:12:03.609Z,74.00
2017-10-15T03:13:02.849Z,74.40
2017-10-15T03:14:02.562Z,71.60
2017-10-15T03:15:03.277Z,82.20
2017-10-15T03:16:02.964Z,78.10
2017-10-15T03:17:02.907Z,83.00
2017-10-15T03:18:02.793Z,81.50
2017-10-15T03:19:02.931Z,86.80
2017-10-15T03:20:03.543Z,75.40
2017-10-15T03:21:02.529Z,83.80
2017-10-15T03:22:02.931Z,80.00
2017-10-15T03:23:02.998Z,82.70
2017-10-15T03:24:02.961Z,86.50
2017-10-15T03:25:03.251Z,87.10
2017-10-15T03:26:02.981Z,97.30
2017-10-15T03:27:03.408Z,103.30
2017-10-15T03:28:02.973Z,97.70
2017-10-15T03:29:02.983Z,106.00
2017-10-15T03:30:03.487Z,113.50
2017-10-15T03:31:02.985Z,118.80
2017-10-15T03:32:02.909Z,106.40
2017-10-15T03:33:02.689Z,105.90
2017-10-15T03:34:03.064Z,111.20
2017-10-15T03:35:03.654Z,108.70
2017-10-15T03:36:02.995Z,99.20
2017-10-15T03:37:02.907Z,96.00
2017-10-15T03:38:02.516Z,96.40
2017-10-15T03:39:02.395Z,88.90
2017-10-15T03:40:03.724Z,88.40
2017-10-15T03:41:03.249Z,86.40
2017-10-15T03:42:03.074Z,79.20
2017-10-15T03:43:02.981Z,77.00
2017-10-15T03:44:03.292Z,83.80
2017-10-15T03:45:03.376Z,86.80
2017-10-15T03:46:02.356Z,90.90
2017-10-15T03:47:03.717Z,90.40
2017-10-15T03:48:03.241Z,91.30
2017-10-15T03:49:02.595Z,90.60
2017-10-15T03:50:03.050Z,91.20
2017-10-15T03:51:03.755Z,94.90
2017-10-15T03:52:03.623Z,100.70
2017-10-15T03:53:03.049Z,98.90
2017-10-15T03:54:02.874Z,94.50
2017-10-15T03:55:03.422Z,94.60
2017-10-15T03:56:02.761Z,92.00
2017-10-15T03:57:03.664Z,93.40
2017-10-15T03:58:02.657Z,97.00
2017-10-15T03:59:03.166Z,99.50
2017-10-15T04:00:03.217Z,104.70
2017-10-15T04:01:03.520Z,107.90
2017-10-15T04:02:02.899Z,104.80
2017-10-15T04:03:03.182Z,105.10
2017-10-15T04:04:03.564Z,102.10
2017-10-15T04:05:03.068Z,104.30
2017-10-15T04:06:03.353Z,104.80
2017-10-15T04:07:02.766Z,104.70
2017-10-15T04:08:03.710Z,107.80
2017-10-15T04:09:02.590Z,104.20
2017-10-15T04:10:02.796Z,103.00
2017-10-15T04:11:03.191Z,105.00
2017-10-15T04:12:03.572Z,105.10
2017-10-15T04:13:03.573Z,101.70
2017-10-15T04:14:02.517Z,102.30
2017-10-15T04:15:03.312Z,104.20
2017-10-15T04:16:03.146Z,102.00
2017-10-15T04:17:03.167Z,96.10
2017-10-15T04:18:03.725Z,101.10
2017-10-15T04:19:02.733Z,99.20
2017-10-15T04:20:02.681Z,99.30
2017-10-15T04:21:02.641Z,103.70
2017-10-15T04:22:02.603Z,107.80
2017-10-15T04:23:03.264Z,109.30
2017-10-15T04:24:03.917Z,106.00
2017-10-15T04:25:02.726Z,105.00
2017-10-15T04:26:02.942Z,103.00
2017-10-15T04:27:02.864Z,101.60
2017-10-15T04:28:03.126Z,92.60
2017-10-15T04:29:03.812Z,102.00
2017-10-15T04:30:02.610Z,102.40
2017-10-15T04:31:02.415Z,103.70
2017-10-15T04:32:03.712Z,102.50
2017-10-15T04:33:03.123Z,101.70
2017-10-15T04:34:02.766Z,100.70
2017-10-15T04:35:03.459Z,98.60
2017-10-15T04:36:02.851Z,95.60
2017-10-15T04:37:03.220Z,95.00
2017-10-15T04:38:03.236Z,92.70
2017-10-15T04:39:03.547Z,91.60
2017-10-15T04:40:02.934Z,94.00
2017-10-15T04:41:03.421Z,92.30
2017-10-15T04:42:02.603Z,90.90
2017-10-15T04:43:02.916Z,92.30
2017-10-15T04:44:02.959Z,91.40
2017-10-15T04:45:02.965Z,94.10
2017-10-15T04:46:03.485Z,95.40
2017-10-15T04:47:02.990Z,101.40
2017-10-15T04:48:03.359Z,99.90
2017-10-15T04:49:02.756Z,96.70
2017-10-15T04:50:02.602Z,94.70
2017-10-15T04:51:02.804Z,100.90
2017-10-15T04:52:03.663Z,98.70
2017-10-15T04:53:03.113Z,96.00
2017-10-15T04:54:02.934Z,93.70
2017-10-15T04:55:02.609Z,97.00
2017-10-15T04:56:03.035Z,92.50
2017-10-15T04:57:02.773Z,91.20
2017-10-15T04:58:03.465Z,92.40
2017-10-15T04:59:02.941Z,93.20
2017-10-15T05:00:03.306Z,90.20
2017-10-15T05:01:03.685Z,86.80
2017-10-15T05:02:02.806Z,87.60
2017-10-15T05:03:03.495Z,88.90
2017-10-15T05:04:02.783Z,85.70
2017-10-15T05:05:02.562Z,76.80
2017-10-15T05:06:03.023Z,76.40
2017-10-15T05:07:03.248Z,75.80
2017-10-15T05:08:03.620Z,73.80
2017-10-15T05:09:03.195Z,73.20
2017-10-15T05:10:03.507Z,73.30
2017-10-15T05:11:02.396Z,76.20
2017-10-15T05:12:02.355Z,72.60
2017-10-15T05:13:02.357Z,71.60
2017-10-15T05:14:03.202Z,69.80
2017-10-15T05:15:03.199Z,73.70
2017-10-15T05:16:03.232Z,72.40
2017-10-15T05:17:02.747Z,73.20
2017-10-15T05:18:02.741Z,74.20
2017-10-15T05:19:03.273Z,72.00
2017-10-15T05:20:03.079Z,72.90
2017-10-15T05:21:03.368Z,72.80
2017-10-15T05:22:03.214Z,76.10
2017-10-15T05:23:03.160Z,74.70
2017-10-15T05:24:03.446Z,74.80
2017-10-15T05:25:02.873Z,67.90
2017-10-15T05:26:02.961Z,72.50
2017-10-15T05:27:03.161Z,70.90
2017-10-15T05:28:03.600Z,69.00
2017-10-15T05:29:03.889Z,69.90
2017-10-15T05:30:03.169Z,67.70
2017-10-15T05:31:02.658Z,66.90
2017-10-15T05:32:02.777Z,67.50
2017-10-15T05:33:03.344Z,65.20
2017-10-15T05:34:03.569Z,62.60
2017-10-15T05:35:02.511Z,64.30
2017-10-15T05:36:02.671Z,69.50
2017-10-15T05:37:02.402Z,72.00
2017-10-15T05:38:02.685Z,72.50
2017-10-15T05:39:02.658Z,67.70
2017-10-15T05:40:03.481Z,69.90
2017-10-15T05:41:02.409Z,70.50
2017-10-15T05:42:02.969Z,70.50
2017-10-15T05:43:03.169Z,73.00
2017-10-15T05:44:03.134Z,73.20
2017-10-15T05:45:02.332Z,72.90
2017-10-15T05:46:03.607Z,71.60
2017-10-15T05:47:02.801Z,71.40
2017-10-15T05:48:02.751Z,68.30
2017-10-15T05:49:02.745Z,68.60
2017-10-15T05:50:02.733Z,67.80
2017-10-15T05:51:03.133Z,70.00
2017-10-15T05:52:03.408Z,74.90
2017-10-15T05:53:03.158Z,71.90
2017-10-15T05:54:03.145Z,69.40
2017-10-15T05:55:03.120Z,69.40
2017-10-15T05:56:03.748Z,68.00
2017-10-15T05:57:02.903Z,68.00
2017-10-15T05:58:03.698Z,65.00
2017-10-15T05:59:02.682Z,64.30
2017-10-15T06:00:03.018Z,62.40
2017-10-15T06:01:03.627Z,62.50
2017-10-15T06:02:02.741Z,59.70
2017-10-15T06:03:03.043Z,57.70
2017-10-15T06:04:03.351Z,60.40
2017-10-15T06:05:03.189Z,62.20
2017-10-15T06:06:02.680Z,59.90
2017-10-15T06:07:03.133Z,59.40
2017-10-15T06:08:03.649Z,60.70
2017-10-15T06:09:03.112Z,59.20
2017-10-15T06:10:03.740Z,61.00
2017-10-15T06:11:03.267Z,58.60
2017-10-15T06:12:04.032Z,59.80
2017-10-15T06:13:03.408Z,59.10
2017-10-15T06:14:02.811Z,59.50
2017-10-15T06:15:02.845Z,58.60
2017-10-15T06:16:03.302Z,58.80
2017-10-15T06:17:03.818Z,60.50
2017-10-15T06:18:03.377Z,58.70
2017-10-15T06:19:02.885Z,61.80
2017-10-15T06:20:03.273Z,57.90
2017-10-15T06:21:02.781Z,55.70
2017-10-15T06:22:03.070Z,54.20
2017-10-15T06:23:03.516Z,52.10
2017-10-15T06:24:02.906Z,48.40
2017-10-15T06:25:03.427Z,45.10
2017-10-15T06:26:02.859Z,43.70
2017-10-15T06:27:03.327Z,41.50
2017-10-15T06:28:02.863Z,39.70
2017-10-15T06:29:03.449Z,37.60
2017-10-15T06:30:02.507Z,37.90
2017-10-15T06:31:03.071Z,34.30
2017-10-15T06:32:04.175Z,34.80
2017-10-15T06:33:02.655Z,34.10
2017-10-15T06:34:03.038Z,31.50
2017-10-15T06:35:03.352Z,30.30
2017-10-15T06:36:02.786Z,29.30
2017-10-15T06:37:02.959Z,28.00
2017-10-15T06:38:03.936Z,26.20
2017-10-15T06:39:03.502Z,27.20
2017-10-15T06:40:03.095Z,26.10
2017-10-15T06:41:03.154Z,24.90
2017-10-15T06:42:03.293Z,25.40
2017-10-15T06:43:02.686Z,26.50
2017-10-15T06:44:03.617Z,27.00
2017-10-15T06:45:03.005Z,27.00
2017-10-15T06:46:03.302Z,26.60
2017-10-15T06:47:02.310Z,26.60
2017-10-15T06:48:16.974Z,27.50
2017-10-15T06:49:11.376Z,27.20
2017-10-15T06:50:16.842Z,28.10
2017-10-15T06:51:03.300Z,28.60
2017-10-15T06:52:03.745Z,28.80
2017-10-15T06:53:03.163Z,27.70
2017-10-15T06:54:03.401Z,28.30
2017-10-15T06:55:02.910Z,27.50
2017-10-15T06:56:03.630Z,27.60
2017-10-15T06:57:02.741Z,27.20
2017-10-15T06:58:03.442Z,28.10
2017-10-15T06:59:02.800Z,28.90
2017-10-15T07:00:03.223Z,28.40
2017-10-15T07:01:02.709Z,27.90
2017-10-15T07:02:03.165Z,27.80
2017-10-15T07:03:03.325Z,26.50
2017-10-15T07:04:03.630Z,25.30
2017-10-15T07:05:03.352Z,23.80
2017-10-15T07:06:02.383Z,19.90
2017-10-15T07:07:02.454Z,17.90
2017-10-15T07:08:03.129Z,16.80
2017-10-15T07:09:03.662Z,15.40
2017-10-15T07:10:02.629Z,14.30
2017-10-15T07:11:02.837Z,14.10
2017-10-15T07:12:03.430Z,13.30
2017-10-15T07:13:02.612Z,12.40
2017-10-15T07:14:04.056Z,12.50
2017-10-15T07:15:02.976Z,11.30
2017-10-15T07:16:03.401Z,12.20
2017-10-15T07:17:02.611Z,12.00
2017-10-15T07:18:03.208Z,13.10
2017-10-15T07:19:03.934Z,12.60
2017-10-15T07:20:04.265Z,12.50
2017-10-15T07:21:03.104Z,12.60
2017-10-15T07:22:03.131Z,12.90
2017-10-15T07:23:03.679Z,12.50
2017-10-15T07:24:02.437Z,11.90
2017-10-15T07:25:03.128Z,12.20
2017-10-15T07:26:03.080Z,11.60
2017-10-15T07:27:03.400Z,12.00
2017-10-15T07:28:03.641Z,11.20
2017-10-15T07:29:02.733Z,10.60
2017-10-15T07:30:03.728Z,10.50
2017-10-15T07:31:03.294Z,12.20
2017-10-15T07:32:03.411Z,11.80
2017-10-15T07:33:02.374Z,11.80
2017-10-15T07:34:02.240Z,10.80
2017-10-15T07:35:03.642Z,10.40
2017-10-15T07:36:02.478Z,10.30
2017-10-15T07:37:02.435Z,9.70
2017-10-15T07:38:02.310Z,10.00
2017-10-15T07:39:03.547Z,10.20
2017-10-15T07:40:02.571Z,9.50
2017-10-15T07:41:03.448Z,10.30
2017-10-15T07:42:02.874Z,10.80
2017-10-15T07:43:03.268Z,10.30
2017-10-15T07:44:02.370Z,9.90
2017-10-15T07:45:02.891Z,9.90
2017-10-15T07:46:03.756Z,11.70
2017-10-15T07:47:02.855Z,10.40
2017-10-15T07:48:03.073Z,10.30
2017-10-15T07:49:03.283Z,10.30
2017-10-15T07:50:02.566Z,10.10
2017-10-15T07:51:03.815Z,10.20
2017-10-15T07:52:03.322Z,9.70
2017-10-15T07:53:03.003Z,9.90
2017-10-15T07:54:03.128Z,9.60
2017-10-15T07:55:03.493Z,10.30
2017-10-15T07:56:02.951Z,9.70
2017-10-15T07:57:03.286Z,10.30
2017-10-15T07:58:03.167Z,9.20
2017-10-15T07:59:02.732Z,9.70
2017-10-15T08:00:03.130Z,9.50
2017-10-15T08:01:03.583Z,10.30
2017-10-15T08:02:02.649Z,9.90
2017-10-15T08:03:03.545Z,9.40
2017-10-15T08:04:03.238Z,9.60
2017-10-15T08:05:02.957Z,9.70
2017-10-15T08:06:16.741Z,9.70
2017-10-15T08:07:03.142Z,9.80
2017-10-15T08:08:03.667Z,10.10
2017-10-15T08:09:03.042Z,9.70
2017-10-15T08:10:03.381Z,10.20
2017-10-15T08:11:02.860Z,9.50
2017-10-15T08:12:03.107Z,9.70
2017-10-15T08:13:04.041Z,10.60
2017-10-15T08:14:03.153Z,10.60
2017-10-15T08:15:04.991Z,10.00
2017-10-15T08:16:03.238Z,10.00
2017-10-15T08:17:03.341Z,10.30
2017-10-15T08:18:03.793Z,9.90
2017-10-15T08:19:03.084Z,9.80
2017-10-15T08:20:03.417Z,9.60
2017-10-15T08:21:02.359Z,9.50
2017-10-15T08:22:03.045Z,9.80
2017-10-15T08:23:04.446Z,9.80
2017-10-15T08:24:02.776Z,9.70
2017-10-15T08:25:03.398Z,9.40
2017-10-15T08:26:02.628Z,10.70
2017-10-15T08:27:02.321Z,9.80
2017-10-15T08:28:02.769Z,9.30
2017-10-15T08:29:03.401Z,9.50
2017-10-15T08:30:03.040Z,9.40
2017-10-15T08:31:03.313Z,9.30
2017-10-15T08:32:02.542Z,9.70
2017-10-15T08:33:03.574Z,10.10
2017-10-15T08:34:03.990Z,9.10
2017-10-15T08:35:03.992Z,9.40
2017-10-15T08:36:03.166Z,9.70
2017-10-15T08:37:02.912Z,10.00
2017-10-15T08:38:03.420Z,10.10
2017-10-15T08:39:03.127Z,10.40
2017-10-15T08:40:03.838Z,10.90
2017-10-15T08:41:03.535Z,10.00
2017-10-15T08:42:02.727Z,9.90
2017-10-15T08:43:03.107Z,12.50
2017-10-15T08:44:02.714Z,9.40
2017-10-15T08:45:03.887Z,8.60
2017-10-15T08:46:04.718Z,8.10
2017-10-15T08:47:04.294Z,7.70
2017-10-15T08:48:02.993Z,7.10
2017-10-15T08:49:03.416Z,7.40
2017-10-15T08:50:03.208Z,7.40
2017-10-15T08:51:03.511Z,7.20
2017-10-15T08:52:03.323Z,7.30
2017-10-15T08:53:03.128Z,6.80
2017-10-15T08:54:02.732Z,7.40
2017-10-15T08:55:03.345Z,6.70
2017-10-15T08:56:02.996Z,6.70
2017-10-15T08:57:03.399Z,7.00
2017-10-15T08:58:03.448Z,6.60
2017-10-15T08:59:02.857Z,6.50
2017-10-15T09:00:03.059Z,6.70
2017-10-15T09:01:04.635Z,6.50
2017-10-15T09:02:03.215Z,6.80
2017-10-15T09:03:03.442Z,6.20
2017-10-15T09:04:02.870Z,6.50
2017-10-15T09:05:02.979Z,6.70
2017-10-15T09:06:03.666Z,6.60
2017-10-15T09:07:03.107Z,6.60
2017-10-15T09:08:03.168Z,7.00
2017-10-15T09:09:02.490Z,6.10
2017-10-15T09:10:03.230Z,6.20
2017-10-15T09:11:03.775Z,6.30
2017-10-15T09:12:03.881Z,6.50
2017-10-15T09:13:03.225Z,5.80
2017-10-15T09:14:02.939Z,6.00
2017-10-15T09:15:03.080Z,6.90
2017-10-15T09:16:03.717Z,5.60
2017-10-15T09:17:02.771Z,5.80
2017-10-15T09:18:03.344Z,6.40
2017-10-15T09:19:02.802Z,5.90
2017-10-15T09:20:03.804Z,6.10
2017-10-15T09:21:03.241Z,6.60
2017-10-15T09:22:02.816Z,5.80
2017-10-15T09:23:03.697Z,6.00
2017-10-15T09:24:03.179Z,5.60
2017-10-15T09:25:02.873Z,5.70
2017-10-15T09:26:03.395Z,5.70
2017-10-15T09:27:02.657Z,5.80
2017-10-15T09:28:03.240Z,6.10
2017-10-15T09:29:04.140Z,5.90
2017-10-15T09:30:03.383Z,6.90
2017-10-15T09:31:02.638Z,6.50
2017-10-15T09:32:02.984Z,6.10
2017-10-15T09:33:03.609Z,6.50
2017-10-15T09:34:03.565Z,5.80
2017-10-15T09:35:03.264Z,6.00
2017-10-15T09:36:02.964Z,5.60
2017-10-15T09:37:03.612Z,6.00
2017-10-15T09:38:02.803Z,5.60
2017-10-15T09:39:03.719Z,5.70
2017-10-15T09:40:03.515Z,5.60
2017-10-15T09:41:03.181Z,5.20
2017-10-15T09:42:02.629Z,5.50
2017-10-15T09:43:02.887Z,5.90
2017-10-15T09:44:03.335Z,5.80
2017-10-15T09:45:03.115Z,6.00
2017-10-15T09:46:03.219Z,6.30
2017-10-15T09:47:03.110Z,5.20
2017-10-15T09:48:03.543Z,5.60
2017-10-15T09:49:03.253Z,5.80
2017-10-15T09:50:03.199Z,5.80
2017-10-15T09:51:02.848Z,5.30
2017-10-15T09:52:02.856Z,5.60
2017-10-15T09:53:03.371Z,5.20
2017-10-15T09:54:03.007Z,5.10
2017-10-15T09:55:04.047Z,5.50
2017-10-15T09:56:03.536Z,5.60
2017-10-15T09:57:03.169Z,5.10
2017-10-15T09:58:02.654Z,4.90
2017-10-15T09:59:03.189Z,5.50
2017-10-15T10:00:02.303Z,5.80
2017-10-15T10:01:03.815Z,5.60
2017-10-15T10:02:03.358Z,5.40
2017-10-15T10:03:02.418Z,5.20
2017-10-15T10:04:02.979Z,5.30
2017-10-15T10:05:03.658Z,5.70
2017-10-15T10:06:03.626Z,5.80
2017-10-15T10:07:02.556Z,5.60
2017-10-15T10:08:02.569Z,6.00
2017-10-15T10:09:03.280Z,5.40
2017-10-15T10:10:02.516Z,5.60
2017-10-15T10:11:02.584Z,6.00
2017-10-15T10:12:03.251Z,5.60
2017-10-15T10:13:02.345Z,6.00
2017-10-15T10:14:02.634Z,5.40
2017-10-15T10:15:03.170Z,5.30
2017-10-15T10:16:02.540Z,5.70
2017-10-15T10:17:02.735Z,5.80
2017-10-15T10:18:04.110Z,5.50
2017-10-15T10:19:02.446Z,5.80
2017-10-15T10:20:02.981Z,5.80
2017-10-15T10:21:03.279Z,6.10
2017-10-15T10:22:02.586Z,5.10
2017-10-15T10:23:03.137Z,5.40
2017-10-15T10:24:04.105Z,6.20
2017-10-15T10:25:03.620Z,5.60
2017-10-15T10:26:03.082Z,5.70
2017-10-15T10:27:03.418Z,5.60
2017-10-15T10:28:02.684Z,5.50
2017-10-15T10:29:04.026Z,5.80
2017-10-15T10:30:03.974Z,5.60
2017-10-15T10:31:04.243Z,5.50
2017-10-15T10:32:02.785Z,5.90
2017-10-15T10:33:03.849Z,5.80
2017-10-15T10:34:04.284Z,5.50
2017-10-15T10:35:02.742Z,5.70
2017-10-15T10:36:03.336Z,6.20
2017-10-15T10:37:02.608Z,6.20
2017-10-15T10:38:03.711Z,6.20
2017-10-15T10:39:03.846Z,6.00
2017-10-15T10:40:03.271Z,6.70
2017-10-15T10:41:03.701Z,6.50
2017-10-15T10:42:03.259Z,6.30
2017-10-15T10:43:02.536Z,5.90
2017-10-15T10:44:02.988Z,5.70
2017-10-15T10:45:03.516Z,5.20
2017-10-15T10:46:02.904Z,5.70
2017-10-15T10:47:03.321Z,5.90
2017-10-15T10:48:02.455Z,5.80
2017-10-15T10:49:02.996Z,5.70
2017-10-15T10:50:03.951Z,5.80
2017-10-15T10:51:03.189Z,6.40
2017-10-15T10:52:02.237Z,6.20
2017-10-15T10:53:02.777Z,5.60
2017-10-15T10:54:03.061Z,5.70
2017-10-15T10:55:02.699Z,5.40
2017-10-15T10:56:03.166Z,6.00
2017-10-15T10:57:02.803Z,5.70
2017-10-15T10:58:03.178Z,5.50
2017-10-15T10:59:02.501Z,5.80
2017-10-15T11:00:02.514Z,5.00
2017-10-15T11:01:04.156Z,5.80
2017-10-15T11:02:02.827Z,5.00
2017-10-15T11:03:03.317Z,5.60
2017-10-15T11:04:03.231Z,5.30
2017-10-15T11:05:03.952Z,5.00
2017-10-15T11:06:03.335Z,5.00
2017-10-15T11:07:03.724Z,4.80
2017-10-15T11:08:03.193Z,5.60
2017-10-15T11:09:03.845Z,5.70
2017-10-15T11:10:03.536Z,5.20
2017-10-15T11:11:02.837Z,5.10
2017-10-15T11:12:03.769Z,5.40
2017-10-15T11:13:03.388Z,4.80
2017-10-15T11:14:02.951Z,5.10
2017-10-15T11:15:03.486Z,4.90
2017-10-15T11:16:02.981Z,5.20
2017-10-15T11:17:02.469Z,4.90
2017-10-15T11:18:03.334Z,4.70
2017-10-15T11:19:02.449Z,4.50
2017-10-15T11:20:03.092Z,4.80
2017-10-15T11:21:03.590Z,5.50
2017-10-15T11:22:03.024Z,4.60
2017-10-15T11:23:03.562Z,5.00
2017-10-15T11:24:03.313Z,4.80
2017-10-15T11:25:03.211Z,4.10
2017-10-15T11:26:02.886Z,4.30
2017-10-15T11:27:03.373Z,4.20
2017-10-15T11:28:03.073Z,4.70
2017-10-15T11:29:03.397Z,4.70
2017-10-15T11:30:02.501Z,4.80
2017-10-15T11:31:02.611Z,5.10
2017-10-15T11:32:03.681Z,4.90
2017-10-15T11:33:03.784Z,4.30
2017-10-15T11:34:03.641Z,4.60
2017-10-15T11:35:03.884Z,4.80
2017-10-15T11:36:04.011Z,4.50
2017-10-15T11:37:03.589Z,4.30
2017-10-15T11:38:03.819Z,5.20
2017-10-15T11:39:03.871Z,4.20
2017-10-15T11:40:03.565Z,4.70
2017-10-15T11:41:03.511Z,4.20
2017-10-15T11:42:02.597Z,4.80
2017-10-15T11:43:02.988Z,4.40
2017-10-15T11:44:03.744Z,4.40
2017-10-15T11:45:03.258Z,4.50
2017-10-15T11:46:02.866Z,5.00
2017-10-15T11:47:02.459Z,4.50
2017-10-15T11:48:03.779Z,4.40
2017-10-15T11:49:03.328Z,5.50
2017-10-15T11:50:02.910Z,4.40
2017-10-15T11:51:02.654Z,4.50
2017-10-15T11:52:02.736Z,4.50
2017-10-15T11:53:03.374Z,4.80
2017-10-15T11:54:03.006Z,5.10
2017-10-15T11:55:03.102Z,5.80
2017-10-15T11:56:02.658Z,9.10
2017-10-15T11:57:03.323Z,5.80
2017-10-15T11:58:03.034Z,5.00
2017-10-15T11:59:03.540Z,4.90
2017-10-15T12:00:03.526Z,6.00
2017-10-15T12:01:02.978Z,5.00
2017-10-15T12:02:03.173Z,5.30
2017-10-15T12:03:02.802Z,5.30
2017-10-15T12:04:03.312Z,6.10
2017-10-15T12:05:02.818Z,6.30
2017-10-15T12:06:03.457Z,5.50
2017-10-15T12:07:02.894Z,6.00
2017-10-15T12:08:02.861Z,5.10
2017-10-15T12:09:03.966Z,4.80
2017-10-15T12:10:02.539Z,4.60
2017-10-15T12:11:03.974Z,4.80
2017-10-15T12:12:03.656Z,4.80
2017-10-15T12:13:02.732Z,4.80
2017-10-15T12:14:03.226Z,4.80
2017-10-15T12:15:02.817Z,4.80
2017-10-15T12:16:04.357Z,4.90
2017-10-15T12:17:02.985Z,4.50
2017-10-15T12:18:03.148Z,5.40
2017-10-15T12:19:02.708Z,4.90
2017-10-15T12:20:02.689Z,4.80
2017-10-15T12:21:03.240Z,5.70
2017-10-15T12:22:04.836Z,4.80
2017-10-15T12:23:02.839Z,4.90
2017-10-15T12:24:02.961Z,4.50
2017-10-15T12:25:03.199Z,5.30
2017-10-15T12:26:02.543Z,4.70
2017-10-15T12:27:03.929Z,4.80
2017-10-15T12:28:02.961Z,5.30
2017-10-15T12:29:04.759Z,4.60
2017-10-15T12:30:03.071Z,4.10
2017-10-15T12:31:02.723Z,4.70
2017-10-15T12:32:03.269Z,4.60
2017-10-15T12:33:05.322Z,4.60
2017-10-15T12:34:02.749Z,4.60
2017-10-15T12:35:03.259Z,4.80
2017-10-15T12:36:02.848Z,4.80
2017-10-15T12:37:04.054Z,4.30
2017-10-15T12:38:02.625Z,4.90
2017-10-15T12:39:03.334Z,4.80
2017-10-15T12:40:02.806Z,4.60
2017-10-15T12:41:03.191Z,4.40
2017-10-15T12:42:02.990Z,4.40
2017-10-15T12:43:02.680Z,4.10
2017-10-15T12:44:03.290Z,4.90
2017-10-15T12:45:03.475Z,5.20
2017-10-15T12:46:03.125Z,4.40
2017-10-15T12:47:03.531Z,4.20
2017-10-15T12:48:02.970Z,4.70
2017-10-15T12:49:03.162Z,4.80
2017-10-15T12:50:03.288Z,4.90
2017-10-15T12:51:02.641Z,4.90
2017-10-15T12:52:02.604Z,4.30
2017-10-15T12:53:03.213Z,4.70
2017-10-15T12:54:02.842Z,4.70
2017-10-15T12:55:03.595Z,4.60
2017-10-15T12:56:02.658Z,4.40
2017-10-15T12:57:03.244Z,5.00
2017-10-15T12:58:02.922Z,4.00
2017-10-15T12:59:03.160Z,4.40
2017-10-15T13:00:03.627Z,4.70